createdAt,value
2018-09-20T00:01:39.769Z,48.77
2018-09-20T00:04:09.622Z,48.72
2018-09-20T00:06:39.482Z,48.07
2018-09-20T00:09:09.774Z,47.44
2018-09-20T00:11:39.539Z,47.88
2018-09-20T00:14:09.159Z,48.94
2018-09-20T00:16:38.984Z,48.42
2018-09-20T00:19:08.656Z,47.46
2018-09-20T00:21:38.553Z,48.00
2018-09-20T00:24:08.590Z,47.47
2018-09-20T00:26:38.394Z,47.76
2018-09-20T00:29:08.228Z,48.01
2018-09-20T00:31:37.890Z,48.58
2018-09-20T00:34:07.785Z,48.06
2018-09-20T00:36:37.440Z,47.25
2018-09-20T00:39:12.062Z,47.98
2018-09-20T00:41:41.992Z,46.88
2018-09-20T00:44:12.382Z,46.67
2018-09-20T00:46:42.222Z,47.55
2018-09-20T00:49:12.199Z,47.14
2018-09-20T00:51:41.915Z,47.28
2018-09-20T00:54:12.019Z,49.04
2018-09-20T00:56:41.813Z,51.04
2018-09-20T00:59:11.631Z,52.36
2018-09-20T01:01:41.391Z,50.91
2018-09-20T01:04:11.126Z,50.01
2018-09-20T01:06:40.912Z,49.46
2018-09-20T01:09:12.101Z,49.33
2018-09-20T01:11:42.444Z,49.22
2018-09-20T01:14:12.274Z,48.89
2018-09-20T01:16:42.069Z,48.46
2018-09-20T01:19:12.032Z,48.81
2018-09-20T01:21:41.734Z,50.34
2018-09-20T01:24:11.485Z,49.33
2018-09-20T01:26:41.203Z,49.35
2018-09-20T01:29:11.062Z,49.50
2018-09-20T01:31:40.848Z,49.91
2018-09-20T01:34:10.602Z,48.94
2018-09-20T01:36:40.545Z,49.78
2018-09-20T01:39:14.338Z,48.10
2018-09-20T01:41:44.098Z,47.45
2018-09-20T01:44:14.589Z,47.06
2018-09-20T01:46:44.178Z,49.22
2018-09-20T01:49:14.014Z,51.77
2018-09-20T01:51:43.779Z,53.41
2018-09-20T01:54:13.573Z,54.28
2018-09-20T01:56:43.547Z,51.94
2018-09-20T01:59:13.202Z,53.02
2018-09-20T02:01:43.015Z,50.30
2018-09-20T02:04:13.761Z,49.84
2018-09-20T02:06:43.555Z,53.05
2018-09-20T02:09:13.420Z,52.02
2018-09-20T02:11:43.127Z,52.33
2018-09-20T02:14:12.946Z,50.38
2018-09-20T02:16:42.720Z,49.29
2018-09-20T02:19:12.447Z,49.52
2018-09-20T02:21:42.106Z,51.42
2018-09-20T02:24:11.831Z,49.93
2018-09-20T02:26:41.569Z,49.31
2018-09-20T02:29:11.306Z,49.87
2018-09-20T02:31:41.050Z,50.14
2018-09-20T02:34:10.844Z,49.70
2018-09-20T02:36:40.673Z,49.93
2018-09-20T02:39:10.505Z,50.31
2018-09-20T02:41:40.234Z,49.76
2018-09-20T02:44:09.916Z,49.31
2018-09-20T02:46:39.658Z,51.16
2018-09-20T02:49:09.514Z,51.59
2018-09-20T02:51:39.301Z,50.38
2018-09-20T02:54:09.240Z,50.40
2018-09-20T02:56:39.095Z,50.68
2018-09-20T02:59:09.173Z,50.95
2018-09-20T03:01:38.996Z,51.71
2018-09-20T03:04:08.772Z,51.34
2018-09-20T03:06:38.628Z,53.89
2018-09-20T03:09:10.784Z,51.84
2018-09-20T03:11:40.612Z,54.84
2018-09-20T03:14:10.393Z,52.56
2018-09-20T03:16:40.205Z,51.22
2018-09-20T03:19:11.103Z,50.91
2018-09-20T03:21:40.943Z,50.07
2018-09-20T03:24:10.629Z,49.30
2018-09-20T03:26:40.600Z,48.35
2018-09-20T03:29:11.039Z,49.12
2018-09-20T03:31:40.811Z,49.17
2018-09-20T03:34:10.682Z,49.53
2018-09-20T03:36:40.341Z,48.61
2018-09-20T03:39:11.692Z,48.46
2018-09-20T03:41:41.690Z,48.54
2018-09-20T03:44:11.370Z,49.09
2018-09-20T03:46:41.216Z,49.00
2018-09-20T03:49:10.914Z,49.65
2018-09-20T03:51:40.631Z,50.19
2018-09-20T03:54:10.462Z,51.79
2018-09-20T03:56:40.353Z,49.93
2018-09-20T03:59:10.094Z,49.73
2018-09-20T04:01:40.283Z,49.07
2018-09-20T04:04:10.055Z,49.84
2018-09-20T04:06:39.916Z,48.42
2018-09-20T04:09:11.886Z,49.00
2018-09-20T04:11:41.862Z,48.52
2018-09-20T04:14:11.578Z,48.20
2018-09-20T04:16:41.257Z,48.39
2018-09-20T04:19:11.326Z,48.42
2018-09-20T04:21:41.071Z,47.79
2018-09-20T04:24:10.717Z,47.44
2018-09-20T04:26:40.491Z,48.67
2018-09-20T04:29:10.350Z,51.94
2018-09-20T04:31:40.251Z,53.09
2018-09-20T04:34:10.074Z,53.54
2018-09-20T04:36:39.789Z,54.03
2018-09-20T04:39:11.262Z,54.93
2018-09-20T04:41:40.976Z,54.50
2018-09-20T04:44:10.633Z,53.28
2018-09-20T04:46:40.310Z,52.48
2018-09-20T04:49:11.091Z,54.37
2018-09-20T04:51:40.826Z,63.84
2018-09-20T04:54:10.660Z,56.71
2018-09-20T04:56:41.157Z,57.14
2018-09-20T04:59:12.494Z,53.51
2018-09-20T05:01:43.335Z,52.50
2018-09-20T05:04:14.073Z,54.15
2018-09-20T05:06:44.530Z,51.05
2018-09-20T05:09:15.863Z,53.38
2018-09-20T05:11:46.078Z,48.97
2018-09-20T05:14:16.685Z,49.73
2018-09-20T05:16:47.575Z,46.89
2018-09-20T05:19:18.683Z,48.23
2018-09-20T05:21:49.410Z,52.07
2018-09-20T05:24:20.024Z,55.78
2018-09-20T05:26:50.448Z,51.07
2018-09-20T05:29:20.985Z,51.75
2018-09-20T05:31:51.638Z,50.36
2018-09-20T05:34:22.250Z,47.39
2018-09-20T05:36:52.890Z,46.50
2018-09-20T05:39:23.934Z,49.60
2018-09-20T05:41:54.416Z,50.77
2018-09-20T05:44:24.276Z,49.21
2018-09-20T05:46:54.215Z,47.41
2018-09-20T05:49:24.810Z,47.70
2018-09-20T05:51:55.062Z,45.66
2018-09-20T05:54:25.454Z,44.94
2018-09-20T05:56:55.881Z,45.55
2018-09-20T05:59:26.712Z,46.13
2018-09-20T06:01:57.655Z,44.95
2018-09-20T06:04:28.218Z,43.26
2018-09-20T06:06:58.621Z,45.06
2018-09-20T06:09:29.226Z,41.72
2018-09-20T06:11:59.790Z,41.79
2018-09-20T06:14:30.303Z,42.41
2018-09-20T06:17:00.930Z,41.55
2018-09-20T06:19:32.508Z,41.50
2018-09-20T06:22:03.394Z,39.20
2018-09-20T06:24:34.060Z,39.32
2018-09-20T06:27:04.648Z,38.05
2018-09-20T06:29:35.119Z,36.94
2018-09-20T06:32:04.957Z,38.35
2018-09-20T06:34:34.695Z,39.02
2018-09-20T06:37:04.538Z,38.07
2018-09-20T06:39:34.254Z,37.24
2018-09-20T06:42:03.998Z,36.31
2018-09-20T06:47:42.478Z,37.40
2018-09-20T06:50:12.778Z,38.01
2018-09-20T06:52:42.596Z,36.68
2018-09-20T06:55:12.385Z,36.19
2018-09-20T06:57:42.131Z,35.15
2018-09-20T07:00:11.989Z,35.70
2018-09-20T07:02:41.925Z,34.73
2018-09-20T07:05:11.607Z,34.17
2018-09-20T07:07:41.472Z,33.82
2018-09-20T07:10:11.306Z,32.14
2018-09-20T07:12:41.215Z,30.54
2018-09-20T07:15:10.940Z,29.72
2018-09-20T07:17:40.648Z,30.42
2018-09-20T07:20:10.413Z,29.50
2018-09-20T07:22:40.260Z,30.37
2018-09-20T07:25:10.151Z,29.29
2018-09-20T07:27:39.922Z,27.82
2018-09-20T07:30:09.992Z,30.04
2018-09-20T07:32:39.858Z,28.95
2018-09-20T07:35:09.612Z,27.59
2018-09-20T07:37:39.412Z,28.44
2018-09-20T07:40:09.417Z,27.12
2018-09-20T07:42:39.267Z,27.45
2018-09-20T07:45:09.057Z,27.06
2018-09-20T07:47:38.721Z,26.53
2018-09-20T07:50:09.171Z,26.19
2018-09-20T07:52:38.826Z,26.07
2018-09-20T07:55:08.636Z,26.75
2018-09-20T07:57:39.044Z,25.80
2018-09-20T08:00:08.969Z,25.70
2018-09-20T08:02:38.926Z,24.79
2018-09-20T08:05:08.458Z,23.83
2018-09-20T08:07:38.174Z,24.24
2018-09-20T08:10:07.779Z,24.25
2018-09-20T08:12:37.661Z,23.79
2018-09-20T08:15:07.608Z,24.20
2018-09-20T08:17:37.617Z,23.83
2018-09-20T08:20:07.433Z,23.89
2018-09-20T08:22:37.206Z,22.08
2018-09-20T08:25:07.033Z,21.59
2018-09-20T08:27:36.774Z,21.08
2018-09-20T08:30:07.608Z,20.91
2018-09-20T08:32:37.430Z,20.66
2018-09-20T08:35:07.323Z,19.60
2018-09-20T08:37:37.732Z,20.04
2018-09-20T08:40:07.463Z,19.71
2018-09-20T08:42:37.225Z,19.16
2018-09-20T08:45:07.714Z,19.53
2018-09-20T08:47:38.060Z,18.87
2018-09-20T08:50:07.965Z,20.08
2018-09-20T08:52:38.050Z,19.75
2018-09-20T08:55:07.857Z,18.48
2018-09-20T08:57:43.672Z,18.99
2018-09-20T09:00:13.532Z,18.32
2018-09-20T09:02:43.355Z,18.06
2018-09-20T09:05:13.106Z,17.80
2018-09-20T09:07:45.988Z,17.30
2018-09-20T09:10:15.639Z,17.10
2018-09-20T09:12:45.637Z,16.52
2018-09-20T09:15:15.415Z,17.40
2018-09-20T09:17:45.877Z,17.33
2018-09-20T09:20:15.493Z,16.76
2018-09-20T09:22:45.270Z,17.32
2018-09-20T09:25:15.326Z,17.87
2018-09-20T09:27:45.009Z,17.59
2018-09-20T09:30:14.841Z,16.39
2018-09-20T09:32:44.732Z,15.47
2018-09-20T09:35:14.433Z,15.86
2018-09-20T09:37:44.296Z,15.59
2018-09-20T09:40:13.902Z,16.41
2018-09-20T09:42:43.725Z,15.14
2018-09-20T09:45:13.359Z,14.80
2018-09-20T09:47:43.084Z,14.09
2018-09-20T09:50:13.014Z,13.40
2018-09-20T09:52:43.203Z,14.12
2018-09-20T09:55:13.050Z,13.61
2018-09-20T09:57:42.868Z,14.02
2018-09-20T10:00:12.737Z,13.93
2018-09-20T10:02:42.555Z,12.69
2018-09-20T10:05:12.347Z,11.60
2018-09-20T10:07:42.048Z,12.28
2018-09-20T10:10:11.922Z,11.25
2018-09-20T10:12:41.704Z,10.91
2018-09-20T10:15:11.544Z,11.14
2018-09-20T10:17:41.373Z,10.90
2018-09-20T10:20:11.119Z,11.25
2018-09-20T10:22:40.908Z,11.53
2018-09-20T10:25:10.725Z,10.42
2018-09-20T10:27:40.544Z,11.44
2018-09-20T10:30:10.465Z,11.23
2018-09-20T10:32:40.358Z,10.30
2018-09-20T10:35:10.237Z,11.14
2018-09-20T10:37:40.087Z,10.32
2018-09-20T10:40:09.803Z,10.01
2018-09-20T10:42:39.711Z,10.32
2018-09-20T10:45:09.631Z,9.57
2018-09-20T10:47:39.370Z,10.71
2018-09-20T10:50:09.305Z,10.75
2018-09-20T10:52:39.073Z,8.98
2018-09-20T10:55:08.962Z,10.28
2018-09-20T10:57:38.726Z,8.99
2018-09-20T11:00:08.606Z,9.59
2018-09-20T11:02:38.478Z,10.27
2018-09-20T11:05:08.381Z,9.52
2018-09-20T11:07:38.181Z,9.99
2018-09-20T11:10:07.952Z,9.92
2018-09-20T11:12:37.818Z,9.30
2018-09-20T11:15:07.771Z,7.94
2018-09-20T11:17:37.626Z,8.26
2018-09-20T11:20:07.770Z,9.03
2018-09-20T11:22:37.550Z,7.98
2018-09-20T11:25:07.458Z,8.22
2018-09-20T11:27:37.299Z,8.38
2018-09-20T11:30:07.507Z,8.01
2018-09-20T11:32:37.294Z,8.98
2018-09-20T11:35:07.103Z,7.74
2018-09-20T11:37:36.892Z,8.01
2018-09-20T11:40:06.894Z,7.68
2018-09-20T11:42:36.665Z,7.29
2018-09-20T11:45:06.872Z,6.38
2018-09-20T11:47:36.540Z,7.51
2018-09-20T11:50:06.737Z,7.74
2018-09-20T11:52:36.614Z,7.93
2018-09-20T11:55:06.389Z,8.05
2018-09-20T11:57:36.994Z,7.80
2018-09-20T12:00:07.335Z,7.94
2018-09-20T12:02:37.121Z,7.67
2018-09-20T12:05:07.027Z,7.42
2018-09-20T12:07:36.889Z,7.04
2018-09-20T12:10:06.779Z,7.70
2018-09-20T12:12:36.482Z,7.87
2018-09-20T12:15:06.465Z,7.43
2018-09-20T12:17:36.203Z,7.06
2018-09-20T12:20:06.304Z,7.26
2018-09-20T12:22:35.999Z,7.16
2018-09-20T12:25:05.928Z,8.52
2018-09-20T12:27:35.750Z,7.10
2018-09-20T12:30:06.078Z,6.74
2018-09-20T12:32:35.861Z,6.92
2018-09-20T12:36:08.188Z,7.39
2018-09-20T12:38:37.947Z,7.70
2018-09-20T12:41:08.181Z,8.21
2018-09-20T12:43:37.981Z,7.34
2018-09-20T12:46:08.149Z,7.67
2018-09-20T12:48:37.890Z,7.64
2018-09-20T12:51:08.076Z,7.27
2018-09-20T12:53:37.732Z,7.62
2018-09-20T12:56:07.618Z,7.44
2018-09-20T12:58:46.460Z,8.20
2018-09-20T13:01:16.416Z,7.54
2018-09-20T13:03:46.795Z,8.09
2018-09-20T13:06:16.711Z,7.25
2018-09-20T13:08:46.502Z,8.31
2018-09-20T13:11:16.312Z,8.29
2018-09-20T13:13:46.159Z,8.39
2018-09-20T13:16:15.849Z,9.12
2018-09-20T13:18:45.694Z,9.12
2018-09-20T13:21:15.609Z,8.77
2018-09-20T13:23:45.625Z,8.26
2018-09-20T13:26:15.471Z,8.65
2018-09-20T13:28:45.291Z,8.59
2018-09-20T13:31:14.904Z,8.57
2018-09-20T13:33:44.608Z,9.13
2018-09-20T13:36:14.517Z,9.63
2018-09-20T13:38:44.178Z,9.30
2018-09-20T13:41:13.890Z,8.56
2018-09-20T13:43:43.765Z,9.03
2018-09-20T13:46:13.560Z,9.46
2018-09-20T13:48:43.367Z,9.91
2018-09-20T13:51:13.275Z,9.55
2018-09-20T13:53:43.197Z,8.76
2018-09-20T13:56:13.034Z,8.98
2018-09-20T13:58:46.931Z,9.19
2018-09-20T14:01:17.834Z,10.77
2018-09-20T14:03:48.050Z,9.42
2018-09-20T14:06:18.021Z,9.43
2018-09-20T14:08:48.474Z,10.29
2018-09-20T14:11:18.408Z,9.77
2018-09-20T14:13:48.761Z,10.85
2018-09-20T14:16:18.407Z,10.53
2018-09-20T14:18:48.184Z,10.13
2018-09-20T14:21:17.903Z,11.81
2018-09-20T14:23:47.851Z,9.35
2018-09-20T14:26:17.692Z,10.22
2018-09-20T14:28:47.551Z,10.53
2018-09-20T14:31:17.441Z,10.61
2018-09-20T14:33:47.312Z,10.65
2018-09-20T14:36:17.163Z,10.42
2018-09-20T14:38:47.044Z,10.37
2018-09-20T14:41:16.847Z,11.82
2018-09-20T14:43:46.617Z,11.53
2018-09-20T14:46:16.422Z,10.70
2018-09-20T14:48:46.208Z,11.30
2018-09-20T14:51:16.061Z,10.42
2018-09-20T14:53:45.868Z,12.00
2018-09-20T14:56:15.698Z,11.97
2018-09-20T14:58:45.551Z,12.00
2018-09-20T15:01:15.448Z,12.11
2018-09-20T15:03:45.761Z,11.98
2018-09-20T15:06:15.644Z,12.29
2018-09-20T15:08:45.403Z,15.19
2018-09-20T15:11:15.160Z,16.91
2018-09-20T15:13:44.840Z,18.40
2018-09-20T15:16:14.481Z,18.90
2018-09-20T15:18:44.394Z,17.46
2018-09-20T15:21:14.193Z,18.39
2018-09-20T15:23:44.106Z,17.99
2018-09-20T15:26:13.934Z,19.55
2018-09-20T15:28:43.946Z,21.50
2018-09-20T15:31:13.585Z,21.49
2018-09-20T15:33:43.444Z,21.82
2018-09-20T15:36:13.293Z,21.65
2018-09-20T15:38:43.049Z,22.23
2018-09-20T15:41:12.864Z,21.78
2018-09-20T15:43:42.657Z,22.68
2018-09-20T15:46:12.492Z,23.19
2018-09-20T15:48:42.380Z,23.12
2018-09-20T15:51:12.177Z,22.68
2018-09-20T15:53:42.048Z,23.33
2018-09-20T15:56:12.214Z,24.49
2018-09-20T15:58:42.023Z,23.36
2018-09-20T16:01:12.426Z,24.17
2018-09-20T16:03:42.909Z,25.30
2018-09-20T16:06:12.984Z,25.74
2018-09-20T16:08:42.746Z,25.66
2018-09-20T16:11:12.659Z,24.65
2018-09-20T16:13:42.432Z,25.65
2018-09-20T16:16:12.277Z,25.64
2018-09-20T16:18:42.055Z,26.54
2018-09-20T16:21:11.900Z,27.59
2018-09-20T16:23:41.745Z,28.33
2018-09-20T16:26:11.501Z,27.96
2018-09-20T16:28:55.470Z,28.05
2018-09-20T16:31:40.566Z,28.55
2018-09-20T16:34:53.404Z,28.02
2018-09-20T16:38:03.173Z,27.73
2018-09-20T16:40:39.160Z,27.32
2018-09-20T16:43:08.853Z,27.36
2018-09-20T16:45:38.708Z,26.65
2018-09-20T16:48:08.541Z,26.40
2018-09-20T16:50:39.292Z,26.46
2018-09-20T16:53:09.148Z,27.19
2018-09-20T16:55:38.824Z,27.11
2018-09-20T16:58:08.669Z,28.30
2018-09-20T17:00:39.351Z,28.97
2018-09-20T17:03:09.057Z,28.76
2018-09-20T17:05:38.922Z,28.85
2018-09-20T17:08:09.094Z,28.23
2018-09-20T17:10:39.791Z,28.16
2018-09-20T17:13:09.656Z,29.37
2018-09-20T17:15:39.597Z,29.30
2018-09-20T17:18:09.432Z,28.72
2018-09-20T17:20:40.101Z,28.95
2018-09-20T17:23:09.937Z,29.56
2018-09-20T17:25:39.768Z,29.83
2018-09-20T17:28:09.627Z,29.35
2018-09-20T17:30:39.416Z,29.45
2018-09-20T17:33:09.305Z,29.79
2018-09-20T17:35:39.961Z,30.27
2018-09-20T17:38:11.142Z,31.09
2018-09-20T17:40:43.567Z,31.03
2018-09-20T17:43:16.298Z,30.59
2018-09-20T17:45:46.001Z,30.73
2018-09-20T17:48:15.718Z,30.26
2018-09-20T17:50:46.949Z,30.76
2018-09-20T17:53:17.318Z,30.01
2018-09-20T17:55:47.932Z,31.34
2018-09-20T17:58:18.498Z,30.73
2018-09-20T18:00:49.070Z,31.41
2018-09-20T18:03:18.898Z,31.63
2018-09-20T18:05:48.690Z,31.66
2018-09-20T18:08:19.010Z,31.14
2018-09-20T18:10:49.137Z,31.45
2018-09-20T18:13:18.857Z,32.07
2018-09-20T18:15:48.407Z,32.04
2018-09-20T18:18:18.436Z,31.80
2018-09-20T18:20:48.269Z,31.84
2018-09-20T18:23:18.095Z,31.58
2018-09-20T18:25:47.996Z,32.11
2018-09-20T18:28:17.766Z,32.09
2018-09-20T18:30:47.473Z,31.69
2018-09-20T18:33:17.236Z,31.75
2018-09-20T18:35:47.081Z,32.18
2018-09-20T18:38:17.102Z,32.59
2018-09-20T18:40:46.980Z,31.94
2018-09-20T18:43:16.829Z,32.23
2018-09-20T18:45:46.659Z,32.42
2018-09-20T18:48:16.489Z,33.32
2018-09-20T18:50:46.257Z,33.21
2018-09-20T18:53:16.087Z,33.46
2018-09-20T18:55:45.689Z,33.93
2018-09-20T18:58:15.614Z,33.35
2018-09-20T19:00:45.506Z,32.74
2018-09-20T19:03:15.393Z,33.29
2018-09-20T19:05:45.348Z,33.12
2018-09-20T19:08:15.215Z,32.90
2018-09-20T19:10:45.325Z,32.77
2018-09-20T19:13:15.218Z,32.38
2018-09-20T19:15:44.967Z,32.94
2018-09-20T19:18:14.694Z,33.19
2018-09-20T19:20:44.530Z,33.33
2018-09-20T19:23:14.357Z,33.36
2018-09-20T19:25:44.200Z,33.44
2018-09-20T19:28:14.041Z,32.72
2018-09-20T19:30:43.884Z,32.12
2018-09-20T19:33:13.691Z,32.91
2018-09-20T19:35:43.553Z,34.23
2018-09-20T19:38:13.243Z,34.59
2018-09-20T19:40:43.029Z,34.46
2018-09-20T19:43:13.612Z,33.84
2018-09-20T19:45:43.402Z,35.04
2018-09-20T19:48:13.066Z,35.08
2018-09-20T19:50:42.866Z,33.84
2018-09-20T19:53:12.679Z,33.53
2018-09-20T19:55:42.443Z,35.49
2018-09-20T19:58:12.214Z,36.19
2018-09-20T20:00:42.049Z,37.19
2018-09-20T20:03:11.965Z,36.94
2018-09-20T20:05:41.799Z,36.58
2018-09-20T20:08:11.645Z,37.66
2018-09-20T20:10:41.487Z,37.25
2018-09-20T20:13:11.883Z,38.11
2018-09-20T20:15:41.715Z,38.07
2018-09-20T20:18:11.506Z,37.47
2018-09-20T20:20:41.410Z,36.96
2018-09-20T20:23:11.206Z,37.82
2018-09-20T20:25:40.937Z,37.82
2018-09-20T20:28:10.785Z,37.64
2018-09-20T20:30:40.597Z,37.06
2018-09-20T20:33:10.369Z,35.89
2018-09-20T20:35:40.059Z,36.34
2018-09-20T20:38:09.912Z,35.83
2018-09-20T20:40:39.688Z,36.71
2018-09-20T20:43:09.481Z,37.81
2018-09-20T20:45:39.425Z,37.86
2018-09-20T20:48:09.171Z,37.74
2018-09-20T20:50:38.893Z,37.84
2018-09-20T20:53:08.916Z,37.89
2018-09-20T20:55:38.779Z,38.13
2018-09-20T20:58:08.701Z,38.23
2018-09-20T21:00:38.511Z,38.16
2018-09-20T21:03:08.354Z,38.14
2018-09-20T21:05:38.164Z,37.98
2018-09-20T21:08:08.090Z,38.65
2018-09-20T21:10:37.893Z,38.45
2018-09-20T21:13:07.848Z,38.80
2018-09-20T21:15:37.921Z,38.74
2018-09-20T21:18:07.567Z,38.48
2018-09-20T21:20:37.396Z,38.08
2018-09-20T21:23:07.207Z,38.03
2018-09-20T21:25:36.984Z,38.43
2018-09-20T21:28:06.718Z,38.39
2018-09-20T21:30:36.554Z,38.99
2018-09-20T21:33:06.492Z,39.29
2018-09-20T21:35:36.331Z,38.70
2018-09-20T21:38:06.278Z,38.07
2018-09-20T21:40:36.030Z,38.56
2018-09-20T21:43:05.666Z,37.63
2018-09-20T21:45:35.458Z,37.79
2018-09-20T21:48:05.468Z,37.54
2018-09-20T21:50:35.369Z,37.49
2018-09-20T21:53:05.169Z,36.48
2018-09-20T21:55:34.928Z,35.96
2018-09-20T21:58:04.737Z,35.62
2018-09-20T22:00:34.563Z,34.85
2018-09-20T22:03:05.428Z,34.41
2018-09-20T22:05:36.195Z,33.61
2018-09-20T22:08:05.986Z,33.69
2018-09-20T22:10:36.461Z,33.56
2018-09-20T22:13:06.364Z,33.93
2018-09-20T22:15:36.151Z,35.23
2018-09-20T22:18:06.490Z,37.08
2018-09-20T22:20:37.318Z,35.01
2018-09-20T22:23:07.257Z,34.99
2018-09-20T22:25:37.062Z,35.13
2018-09-20T22:28:07.049Z,34.70
2018-09-20T22:30:37.664Z,34.60
2018-09-20T22:33:07.460Z,34.15
2018-09-20T22:35:37.404Z,33.84
2018-09-20T22:38:07.249Z,34.91
2018-09-20T22:40:37.945Z,34.38
2018-09-20T22:43:08.213Z,34.52
2018-09-20T22:45:38.056Z,35.20
2018-09-20T22:48:07.928Z,35.86
2018-09-20T22:50:38.302Z,34.97
2018-09-20T22:53:08.600Z,34.87
2018-09-20T22:55:38.331Z,34.64
2018-09-20T22:58:08.218Z,34.63
2018-09-20T23:00:38.597Z,34.43
2018-09-20T23:03:08.542Z,34.22
2018-09-20T23:05:38.785Z,34.18
2018-09-20T23:08:09.231Z,34.68
2018-09-20T23:10:39.730Z,35.78
2018-09-20T23:13:09.622Z,34.34
2018-09-20T23:15:39.501Z,34.75
2018-09-20T23:18:09.657Z,33.90
2018-09-20T23:20:39.770Z,33.89
2018-09-20T23:23:09.556Z,33.43
2018-09-20T23:25:39.541Z,36.63
2018-09-20T23:28:09.373Z,37.27
2018-09-20T23:30:39.226Z,36.60
2018-09-20T23:33:10.245Z,36.17
2018-09-20T23:35:39.822Z,36.36
2018-09-20T23:38:09.794Z,36.31
2018-09-20T23:40:40.436Z,35.96
2018-09-20T23:43:09.932Z,36.04
2018-09-20T23:45:39.791Z,39.34
2018-09-20T23:48:09.780Z,38.82
2018-09-20T23:50:39.617Z,38.33
2018-09-20T23:53:09.362Z,38.11
2018-09-20T23:55:39.206Z,39.52
2018-09-20T23:58:09.027Z,38.76
